createdAt,value
2023-05-18T00:02:01.205Z,2.50
2023-05-18T00:04:28.981Z,2.20
2023-05-18T00:06:58.681Z,2.10
2023-05-18T00:09:25.727Z,2.10
2023-05-18T00:11:52.532Z,2.30
2023-05-18T00:14:19.240Z,2.00
2023-05-18T00:16:45.764Z,2.37
2023-05-18T00:19:14.888Z,1.97
2023-05-18T00:21:48.250Z,2.43
2023-05-18T00:24:15.014Z,2.00
2023-05-18T00:26:41.906Z,2.10
2023-05-18T00:29:08.378Z,1.63
2023-05-18T00:31:36.380Z,2.17
2023-05-18T00:34:03.814Z,2.33
2023-05-18T00:36:31.264Z,2.30
2023-05-18T00:39:00.930Z,2.50
2023-05-18T00:41:28.022Z,2.17
2023-05-18T00:43:54.716Z,2.20
2023-05-18T00:46:21.579Z,2.23
2023-05-18T00:48:48.461Z,2.53
2023-05-18T00:51:14.746Z,2.30
2023-05-18T00:53:43.975Z,2.30
2023-05-18T00:56:11.155Z,2.00
2023-05-18T00:58:38.720Z,1.97
2023-05-18T01:01:06.156Z,1.87
2023-05-18T01:03:33.432Z,1.70
2023-05-18T01:05:59.818Z,2.13
2023-05-18T01:08:27.165Z,2.47
2023-05-18T01:10:55.529Z,2.00
2023-05-18T01:13:27.748Z,1.73
2023-05-18T01:15:56.665Z,1.70
2023-05-18T01:18:25.434Z,1.77
2023-05-18T01:20:57.549Z,2.03
2023-05-18T01:23:44.955Z,1.70
2023-05-18T01:26:13.060Z,2.07
2023-05-18T01:28:39.614Z,2.20
2023-05-18T01:31:06.051Z,1.97
2023-05-18T01:33:32.389Z,2.70
2023-05-18T01:35:58.758Z,1.90
2023-05-18T01:38:26.265Z,1.77
2023-05-18T01:40:52.519Z,2.40
2023-05-18T01:43:20.272Z,2.30
2023-05-18T01:45:48.376Z,1.97
2023-05-18T01:48:18.582Z,1.83
2023-05-18T01:50:47.968Z,2.30
2023-05-18T01:53:23.421Z,2.07
2023-05-18T01:55:50.990Z,1.83
2023-05-18T01:58:17.865Z,2.27
2023-05-18T02:00:44.984Z,2.40
2023-05-18T02:03:12.477Z,2.17
2023-05-18T02:05:38.958Z,2.00
2023-05-18T02:08:05.525Z,2.00
2023-05-18T02:10:31.831Z,2.07
2023-05-18T02:12:58.110Z,2.13
2023-05-18T02:15:24.395Z,2.30
2023-05-18T02:17:50.687Z,2.20
2023-05-18T02:20:20.107Z,2.70
2023-05-18T02:22:46.438Z,2.00
2023-05-18T02:25:12.764Z,2.53
2023-05-18T02:27:39.127Z,2.20
2023-05-18T02:30:06.683Z,2.43
2023-05-18T02:32:33.110Z,2.27
2023-05-18T02:35:02.388Z,2.10
2023-05-18T02:37:28.844Z,2.20
2023-05-18T02:39:55.095Z,1.97
2023-05-18T02:42:21.364Z,2.47
2023-05-18T02:44:47.634Z,2.30
2023-05-18T02:47:13.911Z,2.30
2023-05-18T02:49:40.202Z,2.43
2023-05-18T02:52:06.597Z,1.90
2023-05-18T02:54:32.896Z,1.87
2023-05-18T02:56:59.247Z,1.80
2023-05-18T02:59:25.593Z,1.53
2023-05-18T03:01:51.953Z,2.03
2023-05-18T03:04:18.375Z,1.70
2023-05-18T03:06:46.542Z,1.87
2023-05-18T03:09:13.022Z,1.90
2023-05-18T03:11:39.289Z,2.33
2023-05-18T03:14:05.551Z,2.43
2023-05-18T03:16:31.942Z,2.33
2023-05-18T03:18:59.094Z,1.87
2023-05-18T03:21:25.647Z,1.83
2023-05-18T03:23:51.919Z,1.83
2023-05-18T03:26:18.512Z,2.10
2023-05-18T03:28:44.851Z,1.87
2023-05-18T03:31:11.197Z,1.93
2023-05-18T03:33:37.598Z,2.20
2023-05-18T03:36:04.650Z,1.93
2023-05-18T03:38:30.987Z,2.17
2023-05-18T03:40:57.274Z,2.23
2023-05-18T03:43:26.447Z,2.00
2023-05-18T03:45:53.447Z,1.83
2023-05-18T03:48:20.200Z,2.20
2023-05-18T03:50:46.507Z,2.43
2023-05-18T03:53:13.306Z,2.23
2023-05-18T03:55:39.637Z,2.00
2023-05-18T03:58:05.928Z,2.23
2023-05-18T04:00:32.371Z,2.70
2023-05-18T04:02:58.759Z,1.73
2023-05-18T04:05:25.861Z,2.30
2023-05-18T04:07:52.131Z,2.53
2023-05-18T04:10:19.648Z,2.10
2023-05-18T04:12:46.072Z,2.57
2023-05-18T04:15:14.712Z,2.30
2023-05-18T04:17:45.562Z,2.40
2023-05-18T04:20:14.170Z,2.00
2023-05-18T04:22:46.534Z,2.30
2023-05-18T04:25:14.141Z,2.60
2023-05-18T04:27:41.905Z,1.93
2023-05-18T04:30:10.656Z,2.20
2023-05-18T04:32:37.450Z,2.40
2023-05-18T04:35:06.775Z,2.70
2023-05-18T04:37:33.550Z,3.50
2023-05-18T04:40:02.207Z,3.00
2023-05-18T04:42:29.208Z,2.43
2023-05-18T04:44:55.561Z,2.97
2023-05-18T04:47:23.893Z,2.50
2023-05-18T04:49:52.348Z,2.50
2023-05-18T04:52:19.666Z,2.37
2023-05-18T04:54:46.187Z,2.83
2023-05-18T04:57:13.108Z,2.93
2023-05-18T04:59:41.331Z,3.43
2023-05-18T05:02:07.695Z,3.07
2023-05-18T05:04:33.971Z,2.97
2023-05-18T05:07:00.269Z,2.90
2023-05-18T05:09:26.548Z,3.10
2023-05-18T05:11:52.849Z,2.77
2023-05-18T05:14:19.234Z,2.77
2023-05-18T05:16:45.774Z,2.53
2023-05-18T05:19:12.133Z,2.80
2023-05-18T05:21:38.461Z,2.50
2023-05-18T05:24:06.047Z,2.57
2023-05-18T05:26:32.323Z,2.57
2023-05-18T05:28:58.650Z,3.23
2023-05-18T05:31:24.993Z,3.03
2023-05-18T05:33:51.309Z,2.43
2023-05-18T05:36:17.568Z,2.23
2023-05-18T05:38:43.866Z,2.93
2023-05-18T05:41:10.132Z,3.00
2023-05-18T05:43:36.405Z,2.20
2023-05-18T05:46:02.751Z,2.77
2023-05-18T05:48:29.058Z,2.73
2023-05-18T05:50:55.333Z,2.27
2023-05-18T05:53:23.425Z,2.77
2023-05-18T05:55:49.729Z,2.60
2023-05-18T05:58:16.080Z,2.53
2023-05-18T06:00:43.181Z,2.67
2023-05-18T06:03:09.525Z,2.53
2023-05-18T06:05:35.857Z,2.77
2023-05-18T06:08:02.463Z,2.30
2023-05-18T06:10:28.741Z,2.27
2023-05-18T06:12:55.609Z,2.27
2023-05-18T06:15:21.969Z,1.90
2023-05-18T06:17:48.333Z,1.90
2023-05-18T06:20:14.748Z,2.30
2023-05-18T06:22:41.068Z,2.33
2023-05-18T06:25:08.426Z,1.80
2023-05-18T06:27:34.723Z,2.00
2023-05-18T06:30:00.994Z,1.97
2023-05-18T06:32:27.423Z,1.93
2023-05-18T06:34:53.839Z,1.90
2023-05-18T06:37:21.324Z,2.08
2023-05-18T06:39:47.663Z,1.88
2023-05-18T06:42:13.930Z,2.05
2023-05-18T06:44:40.368Z,1.77
2023-05-18T06:47:06.811Z,2.17
2023-05-18T06:49:33.093Z,2.10
2023-05-18T06:51:59.357Z,2.15
2023-05-18T06:54:25.635Z,2.17
2023-05-18T06:56:52.407Z,2.13
2023-05-18T06:59:18.679Z,2.30
2023-05-18T07:01:45.059Z,1.90
2023-05-18T07:04:11.446Z,1.90
2023-05-18T07:06:38.309Z,2.10
2023-05-18T07:09:04.979Z,2.10
2023-05-18T07:11:31.335Z,2.30
2023-05-18T07:13:57.645Z,1.95
2023-05-18T07:16:26.071Z,1.90
2023-05-18T07:18:53.187Z,2.00
2023-05-18T07:21:19.586Z,1.90
2023-05-18T07:23:46.184Z,2.60
2023-05-18T07:26:12.531Z,1.95
2023-05-18T07:28:38.811Z,1.90
2023-05-18T07:31:05.347Z,1.77
2023-05-18T07:33:31.685Z,1.80
2023-05-18T07:35:58.004Z,2.20
2023-05-18T07:38:24.294Z,2.08
2023-05-18T07:40:50.573Z,2.10
2023-05-18T07:43:16.869Z,2.00
2023-05-18T07:45:43.247Z,2.30
2023-05-18T07:48:09.717Z,2.05
2023-05-18T07:50:36.117Z,1.70
2023-05-18T07:53:02.693Z,1.88
2023-05-18T07:55:29.173Z,1.90
2023-05-18T07:57:55.603Z,2.17
2023-05-18T08:00:22.041Z,2.35
2023-05-18T08:02:48.398Z,1.95
2023-05-18T08:05:14.834Z,1.92
2023-05-18T08:07:41.505Z,1.65
2023-05-18T08:10:07.998Z,1.60
2023-05-18T08:12:34.302Z,1.70
2023-05-18T08:15:00.700Z,1.67
2023-05-18T08:17:27.076Z,1.50
2023-05-18T08:19:56.898Z,1.70
2023-05-18T08:22:23.237Z,1.90
2023-05-18T08:24:49.626Z,1.60
2023-05-18T08:27:15.964Z,1.80
2023-05-18T08:29:42.246Z,1.90
2023-05-18T08:32:08.764Z,1.77
2023-05-18T08:34:35.190Z,1.80
2023-05-18T08:37:01.568Z,1.70
2023-05-18T08:39:31.645Z,1.80
2023-05-18T08:42:00.779Z,1.80
2023-05-18T08:44:30.744Z,1.70
2023-05-18T08:46:57.346Z,1.83
2023-05-18T08:49:25.072Z,1.67
2023-05-18T08:51:55.979Z,2.10
2023-05-18T08:54:22.846Z,1.40
2023-05-18T08:56:49.235Z,1.67
2023-05-18T08:59:22.956Z,1.83
2023-05-18T09:01:50.469Z,1.90
2023-05-18T09:04:17.068Z,1.63
2023-05-18T09:06:45.015Z,1.80
2023-05-18T09:09:11.527Z,1.87
2023-05-18T09:11:38.114Z,1.80
2023-05-18T09:14:04.492Z,1.60
2023-05-18T09:16:31.024Z,1.93
2023-05-18T09:18:57.614Z,1.70
2023-05-18T09:21:23.966Z,1.93
2023-05-18T09:23:50.768Z,2.13
2023-05-18T09:26:17.063Z,1.60
2023-05-18T09:28:43.771Z,1.60
2023-05-18T09:31:12.773Z,1.83
2023-05-18T09:33:40.619Z,1.97
2023-05-18T09:36:08.023Z,2.07
2023-05-18T09:38:38.186Z,1.63
2023-05-18T09:41:09.479Z,1.87
2023-05-18T09:43:36.049Z,1.53
2023-05-18T09:46:06.088Z,1.90
2023-05-18T09:48:32.544Z,1.67
2023-05-18T09:50:59.211Z,1.70
2023-05-18T09:53:25.773Z,1.90
2023-05-18T09:55:52.170Z,1.80
2023-05-18T09:58:18.627Z,1.83
2023-05-18T10:00:51.499Z,2.00
2023-05-18T10:03:18.660Z,1.70
2023-05-18T10:05:45.029Z,1.70
2023-05-18T10:08:12.318Z,1.47
2023-05-18T10:10:39.129Z,1.87
2023-05-18T10:13:05.727Z,1.53
2023-05-18T10:15:33.480Z,1.93
2023-05-18T10:18:03.423Z,1.70
2023-05-18T10:20:29.980Z,1.70
2023-05-18T10:22:58.586Z,1.70
2023-05-18T10:25:29.154Z,1.67
2023-05-18T10:28:01.209Z,1.50
2023-05-18T10:30:28.055Z,1.95
2023-05-18T10:32:55.511Z,2.00
2023-05-18T10:35:23.790Z,1.83
2023-05-18T10:37:53.028Z,1.70
2023-05-18T10:40:19.759Z,1.77
2023-05-18T10:42:46.292Z,1.33
2023-05-18T10:45:12.859Z,1.63
2023-05-18T10:47:40.164Z,1.93
2023-05-18T10:50:06.899Z,1.93
2023-05-18T10:52:33.974Z,1.80
2023-05-18T10:55:01.144Z,1.70
2023-05-18T10:57:34.489Z,1.80
2023-05-18T11:00:01.023Z,1.57
2023-05-18T11:02:27.615Z,1.77
2023-05-18T11:04:54.449Z,1.67
2023-05-18T11:07:21.175Z,1.90
2023-05-18T11:09:48.543Z,2.00
2023-05-18T11:12:17.647Z,1.43
2023-05-18T11:14:48.108Z,3.00
2023-05-18T11:17:18.336Z,1.50
2023-05-18T11:20:12.893Z,1.67
2023-05-18T11:22:46.530Z,1.70
2023-05-18T11:25:25.586Z,1.73
2023-05-18T11:28:02.381Z,1.40
2023-05-18T11:30:28.762Z,1.57
2023-05-18T11:33:08.625Z,1.70
2023-05-18T11:35:53.884Z,1.80
2023-05-18T11:38:20.204Z,2.00
2023-05-18T11:40:47.739Z,2.10
2023-05-18T11:43:21.832Z,1.83
2023-05-18T11:45:59.478Z,1.60
2023-05-18T11:48:26.825Z,1.70
2023-05-18T11:50:54.296Z,1.90
2023-05-18T11:53:22.955Z,1.50
2023-05-18T11:55:52.041Z,1.50
2023-05-18T11:58:20.466Z,1.93
2023-05-18T12:00:48.322Z,1.70
2023-05-18T12:03:15.173Z,1.73
2023-05-18T12:05:49.170Z,1.50
2023-05-18T12:08:21.780Z,1.90
2023-05-18T12:10:51.249Z,1.70
2023-05-18T12:13:20.619Z,1.80
2023-05-18T12:15:46.925Z,1.70
2023-05-18T12:18:14.201Z,1.60
2023-05-18T12:20:41.006Z,1.73
2023-05-18T12:23:07.495Z,1.80
2023-05-18T12:25:34.136Z,1.90
2023-05-18T12:28:01.114Z,1.73
2023-05-18T12:30:35.085Z,1.50
2023-05-18T12:33:02.546Z,1.40
2023-05-18T12:35:29.785Z,1.70
2023-05-18T12:38:00.822Z,1.57
2023-05-18T12:40:27.796Z,1.77
2023-05-18T12:43:03.090Z,1.60
2023-05-18T12:45:32.213Z,1.97
2023-05-18T12:48:09.078Z,1.60
2023-05-18T12:50:37.071Z,1.77
2023-05-18T12:53:03.437Z,1.43
2023-05-18T12:55:30.990Z,1.70
2023-05-18T12:58:02.101Z,1.77
2023-05-18T13:00:32.694Z,1.53
2023-05-18T13:03:15.163Z,1.70
2023-05-18T13:05:46.027Z,1.60
2023-05-18T13:08:21.452Z,1.43
2023-05-18T13:10:52.980Z,1.60
2023-05-18T13:13:21.820Z,1.43
2023-05-18T13:15:48.165Z,1.67
2023-05-18T13:18:15.139Z,1.80
2023-05-18T13:20:50.994Z,1.70
2023-05-18T13:23:18.332Z,1.50
2023-05-18T13:25:44.881Z,1.57
2023-05-18T13:28:11.923Z,1.50
2023-05-18T13:30:38.816Z,1.53
2023-05-18T13:33:06.045Z,1.40
2023-05-18T13:35:32.552Z,1.47
2023-05-18T13:37:59.111Z,1.73
2023-05-18T13:40:25.907Z,1.87
2023-05-18T13:42:52.536Z,2.10
2023-05-18T13:45:21.390Z,1.80
2023-05-18T13:47:50.848Z,1.77
2023-05-18T13:50:17.589Z,1.80
2023-05-18T13:52:44.235Z,1.60
2023-05-18T13:55:12.432Z,1.77
2023-05-18T13:57:38.856Z,1.60
2023-05-18T14:00:12.581Z,1.80
2023-05-18T14:02:39.458Z,1.63
2023-05-18T14:05:08.036Z,1.90
2023-05-18T14:07:35.241Z,1.70
2023-05-18T14:10:01.967Z,1.53
2023-05-18T14:12:28.326Z,2.07
2023-05-18T14:14:54.760Z,1.70
2023-05-18T14:17:21.143Z,2.10
2023-05-18T14:19:47.448Z,2.00
2023-05-18T14:22:14.026Z,1.80
2023-05-18T14:24:40.355Z,2.17
2023-05-18T14:27:06.706Z,2.10
2023-05-18T14:29:35.835Z,2.00
2023-05-18T14:32:02.513Z,2.10
2023-05-18T14:34:28.857Z,2.30
2023-05-18T14:36:55.118Z,2.27
2023-05-18T14:39:21.401Z,2.00
2023-05-18T14:41:47.806Z,2.23
2023-05-18T14:44:14.120Z,2.20
2023-05-18T14:46:41.189Z,2.27
2023-05-18T14:49:07.606Z,2.00
2023-05-18T14:51:33.916Z,2.20
2023-05-18T14:54:00.361Z,2.30
2023-05-18T14:56:26.989Z,2.50
2023-05-18T14:58:53.359Z,2.33
2023-05-18T15:01:19.856Z,2.50
2023-05-18T15:03:46.332Z,1.90
2023-05-18T15:06:13.848Z,2.47
2023-05-18T15:08:40.518Z,2.20
2023-05-18T15:11:06.824Z,2.17
2023-05-18T15:13:33.106Z,2.43
2023-05-18T15:15:59.579Z,2.40
2023-05-18T15:18:25.948Z,2.73
2023-05-18T15:20:52.359Z,2.33
2023-05-18T15:23:18.704Z,2.30
2023-05-18T15:25:45.460Z,2.40
2023-05-18T15:28:11.739Z,2.37
2023-05-18T15:30:38.283Z,2.27
2023-05-18T15:33:06.132Z,2.43
2023-05-18T15:35:34.770Z,2.37
2023-05-18T15:38:01.094Z,2.40
2023-05-18T15:40:27.434Z,2.40
2023-05-18T15:42:53.726Z,2.30
2023-05-18T15:45:20.133Z,2.20
2023-05-18T15:47:46.506Z,1.67
2023-05-18T15:50:13.464Z,2.20
2023-05-18T15:52:39.738Z,1.97
2023-05-18T15:55:06.346Z,1.80
2023-05-18T15:57:33.144Z,1.53
2023-05-18T15:59:59.522Z,2.00
2023-05-18T16:02:26.253Z,1.70
2023-05-18T16:04:52.561Z,1.93
2023-05-18T16:07:18.952Z,1.93
2023-05-18T16:09:45.818Z,3.03
2023-05-18T16:12:12.366Z,2.20
2023-05-18T16:14:43.627Z,2.30
2023-05-18T16:17:10.051Z,6.53
2023-05-18T16:19:36.480Z,2.90
2023-05-18T16:22:02.860Z,1.80
2023-05-18T16:24:30.184Z,1.70
2023-05-18T16:26:57.015Z,1.70
2023-05-18T16:29:23.297Z,1.60
2023-05-18T16:31:49.789Z,1.60
2023-05-18T16:34:16.221Z,1.87
2023-05-18T16:36:42.605Z,1.67
2023-05-18T16:39:08.975Z,1.50
2023-05-18T16:41:35.285Z,1.83
2023-05-18T16:44:01.595Z,2.00
2023-05-18T16:46:28.160Z,2.17
2023-05-18T16:48:54.962Z,1.80
2023-05-18T16:51:21.255Z,1.80
2023-05-18T16:53:47.998Z,1.60
2023-05-18T16:56:14.298Z,1.40
2023-05-18T16:58:40.661Z,1.80
2023-05-18T17:01:19.423Z,1.57
2023-05-18T17:03:53.481Z,1.87
2023-05-18T17:06:21.181Z,1.67
2023-05-18T17:08:47.506Z,1.53
2023-05-18T17:11:14.355Z,1.70
2023-05-18T17:13:40.780Z,1.83
2023-05-18T17:16:07.188Z,1.90
2023-05-18T17:18:33.524Z,1.77
2023-05-18T17:20:59.855Z,1.90
2023-05-18T17:23:26.122Z,1.60
2023-05-18T17:25:55.098Z,1.80
2023-05-18T17:28:28.059Z,2.03
2023-05-18T17:30:54.404Z,1.90
2023-05-18T17:33:20.747Z,2.00
2023-05-18T17:35:47.075Z,1.70
2023-05-18T17:38:17.001Z,1.80
2023-05-18T17:40:43.494Z,2.03
2023-05-18T17:43:09.757Z,1.53
2023-05-18T17:45:36.042Z,1.80
2023-05-18T17:48:02.374Z,1.60
2023-05-18T17:50:28.716Z,1.60
2023-05-18T17:52:55.111Z,1.50
2023-05-18T17:55:21.394Z,1.53
2023-05-18T17:57:47.873Z,1.93
2023-05-18T18:00:14.689Z,1.50
2023-05-18T18:02:41.410Z,1.70
2023-05-18T18:05:08.023Z,1.30
2023-05-18T18:07:34.493Z,1.40
2023-05-18T18:10:01.013Z,1.73
2023-05-18T18:12:27.292Z,1.50
2023-05-18T18:14:53.620Z,1.70
2023-05-18T18:17:19.936Z,1.50
2023-05-18T18:19:46.248Z,1.30
2023-05-18T18:22:12.528Z,1.70
2023-05-18T18:24:38.861Z,2.00
2023-05-18T18:27:05.415Z,1.80
2023-05-18T18:29:31.895Z,1.70
2023-05-18T18:31:58.197Z,1.33
2023-05-18T18:34:24.457Z,1.80
2023-05-18T18:36:50.762Z,1.60
2023-05-18T18:39:17.107Z,1.67
2023-05-18T18:41:43.483Z,1.80
2023-05-18T18:44:09.840Z,1.80
2023-05-18T18:46:36.262Z,1.93
2023-05-18T18:49:02.572Z,1.80
2023-05-18T18:51:28.932Z,2.07
2023-05-18T18:53:55.860Z,1.87
2023-05-18T18:56:24.266Z,2.30
2023-05-18T18:58:50.761Z,2.27
2023-05-18T19:01:17.155Z,2.13
2023-05-18T19:03:43.535Z,2.10
2023-05-18T19:06:09.833Z,2.10
2023-05-18T19:08:36.122Z,2.40
2023-05-18T19:11:02.461Z,2.37
2023-05-18T19:13:28.876Z,3.43
2023-05-18T19:15:55.511Z,2.83
2023-05-18T19:18:21.857Z,4.03
2023-05-18T19:20:48.266Z,3.40
2023-05-18T19:23:14.609Z,2.47
2023-05-18T19:25:40.978Z,2.40
2023-05-18T19:28:07.312Z,2.60
2023-05-18T19:30:33.646Z,2.17
2023-05-18T19:32:59.950Z,2.63
2023-05-18T19:35:27.016Z,2.87
2023-05-18T19:37:53.374Z,2.40
2023-05-18T19:40:21.502Z,2.80
2023-05-18T19:42:47.820Z,2.80
2023-05-18T19:45:14.119Z,2.50
2023-05-18T19:47:40.415Z,2.83
2023-05-18T19:50:07.116Z,2.40
2023-05-18T19:52:33.725Z,2.90
2023-05-18T19:55:00.153Z,3.30
2023-05-18T19:57:26.511Z,3.03
2023-05-18T19:59:53.053Z,2.80
2023-05-18T20:02:19.375Z,3.43
2023-05-18T20:04:47.225Z,2.80
2023-05-18T20:07:13.524Z,3.40
2023-05-18T20:09:39.855Z,2.97
2023-05-18T20:12:06.309Z,3.30
2023-05-18T20:14:33.587Z,2.60
2023-05-18T20:17:00.504Z,2.70
2023-05-18T20:19:30.613Z,3.20
2023-05-18T20:21:57.008Z,2.50
2023-05-18T20:24:24.354Z,2.80
2023-05-18T20:26:50.807Z,2.63
2023-05-18T20:29:17.143Z,2.90
2023-05-18T20:31:43.452Z,2.60
2023-05-18T20:34:09.763Z,2.57
2023-05-18T20:36:36.049Z,2.47
2023-05-18T20:39:02.476Z,2.67
2023-05-18T20:41:30.076Z,2.53
2023-05-18T20:43:56.805Z,3.10
2023-05-18T20:46:24.631Z,2.73
2023-05-18T20:48:55.014Z,2.43
2023-05-18T20:51:23.260Z,2.43
2023-05-18T20:53:49.704Z,2.43
2023-05-18T20:56:16.002Z,2.50
2023-05-18T20:58:42.637Z,2.20
2023-05-18T21:01:10.779Z,2.57
2023-05-18T21:03:38.397Z,2.47
2023-05-18T21:06:05.093Z,2.27
2023-05-18T21:08:32.455Z,2.30
2023-05-18T21:10:58.728Z,2.30
2023-05-18T21:13:25.013Z,2.70
2023-05-18T21:15:51.460Z,2.30
2023-05-18T21:18:17.753Z,2.60
2023-05-18T21:20:44.333Z,1.97
2023-05-18T21:23:10.666Z,2.20
2023-05-18T21:25:36.960Z,2.67
2023-05-18T21:28:03.460Z,2.63
2023-05-18T21:30:31.397Z,2.23
2023-05-18T21:32:57.930Z,2.23
2023-05-18T21:35:24.275Z,2.47
2023-05-18T21:37:50.615Z,2.63
2023-05-18T21:40:16.885Z,2.27
2023-05-18T21:42:45.802Z,2.73
2023-05-18T21:45:12.680Z,2.27
2023-05-18T21:47:39.040Z,2.20
2023-05-18T21:50:05.672Z,2.60
2023-05-18T21:52:32.187Z,2.30
2023-05-18T21:54:58.481Z,2.60
2023-05-18T21:57:24.874Z,2.30
2023-05-18T21:59:51.212Z,2.30
2023-05-18T22:02:17.554Z,2.27
2023-05-18T22:04:43.888Z,3.47
2023-05-18T22:07:10.361Z,2.10
2023-05-18T22:09:36.715Z,2.30
2023-05-18T22:12:03.268Z,3.30
2023-05-18T22:14:31.001Z,2.17
2023-05-18T22:16:57.382Z,2.63
2023-05-18T22:19:23.765Z,2.37
2023-05-18T22:21:50.183Z,2.10
2023-05-18T22:24:16.708Z,2.80
2023-05-18T22:26:43.289Z,2.30
2023-05-18T22:29:09.718Z,2.30
2023-05-18T22:31:36.675Z,2.13
2023-05-18T22:34:03.334Z,2.20
2023-05-18T22:36:29.732Z,2.00
2023-05-18T22:38:57.364Z,2.10
2023-05-18T22:41:23.751Z,2.17
2023-05-18T22:43:50.069Z,1.97
2023-05-18T22:46:16.470Z,1.87
2023-05-18T22:48:42.905Z,2.10
2023-05-18T22:51:09.754Z,2.07
2023-05-18T22:53:36.072Z,1.90
2023-05-18T22:56:03.199Z,2.30
2023-05-18T22:58:29.533Z,2.00
2023-05-18T23:00:56.020Z,2.23
2023-05-18T23:03:22.370Z,2.07
2023-05-18T23:05:48.671Z,2.27
2023-05-18T23:08:17.996Z,2.23
2023-05-18T23:10:44.479Z,2.27
2023-05-18T23:13:11.391Z,2.00
2023-05-18T23:15:41.445Z,1.97
2023-05-18T23:18:10.611Z,1.93
2023-05-18T23:20:38.586Z,2.03
2023-05-18T23:23:04.979Z,2.20
2023-05-18T23:25:31.270Z,2.03
2023-05-18T23:27:57.604Z,1.97
2023-05-18T23:30:23.926Z,1.97
2023-05-18T23:32:50.497Z,1.90
2023-05-18T23:35:17.665Z,2.23
2023-05-18T23:37:45.651Z,2.10
2023-05-18T23:40:12.510Z,2.20
2023-05-18T23:42:38.927Z,1.73
2023-05-18T23:45:05.906Z,2.07
2023-05-18T23:47:32.328Z,2.00
2023-05-18T23:49:58.759Z,2.10
2023-05-18T23:52:25.666Z,2.17
2023-05-18T23:54:55.542Z,2.20
2023-05-18T23:57:23.868Z,1.97
2023-05-18T23:59:50.605Z,2.10
